Time;durP1;ratioP1;P1;durP2;ratioP2;P2;SDS_P1;SDS_P2;PMS_P1;PMS_P2;Temp;Humidity;BMP_temperature;BMP_pressure;BME280_temperature;BME280_humidity;BME280_pressure;Samples;Min_cycle;Max_cycle;Signal;HPM_P1;HPM_P2
2023/09/08 00:00:34;;;;;;;12.20;7.30;;;19.70;99.90;;;;;;5033715;28;20049;-67
2023/09/08 00:03:00;;;;;;;11.70;8.30;;;19.70;99.90;;;;;;5033404;28;20060;-67
2023/09/08 00:05:29;;;;;;;14.85;8.00;;;19.60;99.90;;;;;;5033407;28;20057;-66
2023/09/08 00:07:56;;;;;;;12.55;7.55;;;19.60;99.90;;;;;;5031840;28;20045;-66
2023/09/08 00:10:22;;;;;;;11.57;8.40;;;19.60;99.90;;;;;;5015896;28;20107;-66
2023/09/08 00:12:49;;;;;;;12.27;7.57;;;19.50;99.90;;;;;;5033195;28;20048;-66
2023/09/08 00:15:16;;;;;;;11.70;7.93;;;19.50;99.90;;;;;;5015750;28;20045;-67
2023/09/08 00:17:43;;;;;;;13.98;7.70;;;19.40;99.90;;;;;;5015469;28;20504;-67
2023/09/08 00:20:11;;;;;;;15.10;8.63;;;19.40;99.90;;;;;;5031715;28;20068;-67
2023/09/08 00:22:40;;;;;;;10.50;7.55;;;19.30;99.90;;;;;;5015564;28;20073;-67
2023/09/08 00:25:07;;;;;;;10.18;7.68;;;19.40;99.90;;;;;;5033380;28;20052;-68
2023/09/08 00:27:34;;;;;;;12.68;7.70;;;19.30;99.90;;;;;;5014978;28;20436;-67
2023/09/08 00:30:02;;;;;;;9.60;8.23;;;19.20;99.90;;;;;;5015198;28;20049;-67
2023/09/08 00:32:28;;;;;;;13.25;8.05;;;19.20;99.90;;;;;;5015011;28;20049;-67
2023/09/08 00:34:55;;;;;;;10.60;7.85;;;19.20;99.90;;;;;;5014948;28;20555;-67
2023/09/08 00:37:22;;;;;;;10.82;7.38;;;19.20;99.90;;;;;;5032855;28;20563;-67
2023/09/08 00:39:50;;;;;;;9.68;7.25;;;19.10;99.90;;;;;;5032394;28;20184;-67
2023/09/08 00:42:17;;;;;;;9.13;7.53;;;19.10;99.90;;;;;;5014837;28;20582;-67
2023/09/08 00:44:44;;;;;;;10.73;7.88;;;19.00;99.90;;;;;;5033002;28;20049;-67
2023/09/08 00:47:12;;;;;;;10.05;7.72;;;19.00;99.90;;;;;;5032527;28;20080;-66
2023/09/08 00:49:39;;;;;;;10.55;8.02;;;19.00;99.90;;;;;;5032844;28;20041;-67
2023/09/08 00:52:06;;;;;;;12.18;8.38;;;18.90;99.90;;;;;;5032978;28;20052;-67
2023/09/08 00:54:33;;;;;;;9.70;7.70;;;18.90;99.90;;;;;;5032189;28;20045;-67
2023/09/08 00:57:04;;;;;;;10.75;7.55;;;18.90;99.90;;;;;;5012696;28;20057;-66
2023/09/08 00:59:32;;;;;;;;;;;18.80;99.90;;;;;;5015234;28;20065;-66
2023/09/08 01:01:59;;;;;;;10.95;8.38;;;18.80;99.90;;;;;;5032128;28;19975;-66
2023/09/08 01:04:26;;;;;;;9.57;7.80;;;18.70;99.90;;;;;;5014101;28;20056;-67
2023/09/08 01:06:53;;;;;;;9.57;8.25;;;18.70;99.90;;;;;;5014895;28;20448;-66
2023/09/08 01:09:20;;;;;;;12.57;7.82;;;18.80;99.90;;;;;;5014381;28;20504;-66
2023/09/08 01:11:47;;;;;;;11.10;8.15;;;18.70;99.90;;;;;;5012343;28;20057;-68
2023/09/08 01:14:19;;;;;;;10.70;7.57;;;18.70;99.90;;;;;;5013982;28;20425;-67
2023/09/08 01:16:46;;;;;;;11.10;8.18;;;18.70;99.90;;;;;;5014170;28;20122;-67
2023/09/08 01:19:15;;;;;;;10.85;7.88;;;18.60;99.90;;;;;;5032637;28;20048;-67
2023/09/08 01:21:59;;;;;;;11.23;8.00;;;18.60;99.90;;;;;;5032287;28;20064;-67
2023/09/08 01:25:13;;;;;;;12.35;8.18;;;18.70;99.90;;;;;;5014422;28;20060;-67
2023/09/08 01:27:47;;;;;;;13.55;7.70;;;18.70;99.90;;;;;;5014525;28;20045;-67
2023/09/08 01:30:15;;;;;;;10.00;7.05;;;18.60;99.90;;;;;;5031809;28;20053;-66
2023/09/08 01:32:43;;;;;;;9.40;7.32;;;18.60;99.90;;;;;;5014170;28;20041;-67
2023/09/08 01:35:11;;;;;;;10.63;7.78;;;18.50;99.90;;;;;;5013089;28;20045;-67
2023/09/08 01:37:41;;;;;;;10.63;7.43;;;18.50;99.90;;;;;;5013941;28;20444;-66
2023/09/08 01:40:11;;;;;;;9.25;7.03;;;18.50;99.90;;;;;;5030083;28;20041;-66
2023/09/08 01:42:38;;;;;;;10.00;7.88;;;18.50;99.90;;;;;;5014158;28;20053;-66
2023/09/08 01:45:06;;;;;;;9.77;7.55;;;18.40;99.90;;;;;;5029514;28;20049;-66
2023/09/08 01:47:33;;;;;;;15.10;8.90;;;18.40;99.90;;;;;;5032159;28;20056;-66
2023/09/08 01:50:00;;;;;;;11.38;8.13;;;18.40;99.90;;;;;;5014014;28;20045;-67
2023/09/08 01:52:27;;;;;;;10.60;7.75;;;18.40;99.90;;;;;;5014199;28;20053;-67
2023/09/08 01:54:54;;;;;;;10.45;7.55;;;18.30;99.90;;;;;;5032103;28;20050;-66
2023/09/08 01:57:23;;;;;;;11.43;7.53;;;18.30;99.90;;;;;;5031555;28;20080;-66
2023/09/08 01:59:49;;;;;;;9.20;7.28;;;18.30;99.90;;;;;;5011742;28;20057;-67
2023/09/08 02:02:16;;;;;;;11.02;6.90;;;18.30;99.90;;;;;;5013756;28;20058;-67
2023/09/08 02:04:43;;;;;;;13.55;7.32;;;18.30;99.90;;;;;;5029069;28;20099;-67
2023/09/08 02:07:10;;;;;;;9.93;7.93;;;18.20;99.90;;;;;;5013762;28;20053;-66
2023/09/08 02:09:38;;;;;;;11.27;7.95;;;18.20;99.90;;;;;;5031733;28;20494;-66
2023/09/08 02:12:06;;;;;;;10.60;8.00;;;18.20;99.90;;;;;;5031229;28;20117;-66
2023/09/08 02:14:34;;;;;;;10.95;7.72;;;18.20;99.90;;;;;;5032132;28;20448;-67
2023/09/08 02:17:02;;;;;;;12.88;7.93;;;18.20;99.90;;;;;;5017910;28;20057;-67
2023/09/08 02:19:29;;;;;;;10.00;7.95;;;18.10;99.90;;;;;;5017379;28;20052;-68
2023/09/08 02:21:55;;;;;;;9.40;7.68;;;18.10;99.90;;;;;;5035516;28;20129;-69
2023/09/08 02:24:22;;;;;;;10.48;7.97;;;18.10;99.90;;;;;;5035937;28;20050;-69
2023/09/08 02:26:50;;;;;;;14.80;8.50;;;18.10;99.90;;;;;;5017230;28;20057;-69
2023/09/08 02:29:17;;;;;;;10.23;7.93;;;18.10;99.90;;;;;;5035768;28;20041;-68
2023/09/08 02:31:45;;;;;;;11.88;7.57;;;18.00;99.90;;;;;;5035535;28;20378;-68
2023/09/08 02:34:12;;;;;;;13.43;8.35;;;18.00;99.90;;;;;;5015088;28;20049;-68
2023/09/08 02:36:39;;;;;;;9.60;7.53;;;17.90;99.90;;;;;;5035528;28;20050;-69
2023/09/08 02:39:06;;;;;;;15.38;7.97;;;17.90;99.90;;;;;;5017385;28;20050;-67
2023/09/08 02:41:34;;;;;;;16.75;8.50;;;17.90;99.90;;;;;;5034841;28;20547;-68
2023/09/08 02:44:00;;;;;;;10.63;8.05;;;17.90;99.90;;;;;;5017360;28;20049;-67
2023/09/08 02:46:27;;;;;;;10.95;8.10;;;17.80;99.90;;;;;;5034739;28;20056;-68
2023/09/08 02:48:56;;;;;;;13.15;8.95;;;17.80;99.90;;;;;;5017454;28;20119;-70
2023/09/08 02:51:23;;;;;;;12.32;8.00;;;17.80;99.90;;;;;;5017473;28;20068;-68
2023/09/08 02:53:50;;;;;;;10.73;8.15;;;17.80;99.90;;;;;;5016713;28;20057;-68
2023/09/08 02:56:17;;;;;;;9.45;8.25;;;17.70;99.90;;;;;;5017352;28;20053;-69
2023/09/08 02:58:44;;;;;;;10.63;8.25;;;17.70;99.90;;;;;;5017104;28;20049;-69
2023/09/08 03:01:14;;;;;;;11.23;7.90;;;17.70;99.90;;;;;;5016601;28;20493;-69
2023/09/08 03:03:41;;;;;;;13.73;8.73;;;17.70;99.90;;;;;;5035032;28;20052;-68
2023/09/08 03:06:09;;;;;;;10.05;7.93;;;17.60;99.90;;;;;;5017130;28;20045;-68
2023/09/08 03:08:37;;;;;;;10.73;8.35;;;17.60;99.90;;;;;;5016521;28;20053;-68
2023/09/08 03:11:06;;;;;;;12.10;9.07;;;17.70;99.90;;;;;;5035061;28;20103;-67
2023/09/08 03:13:34;;;;;;;10.82;8.23;;;17.60;99.90;;;;;;5016975;28;20136;-67
2023/09/08 03:16:05;;;;;;;12.23;8.43;;;17.60;99.90;;;;;;5032262;28;20474;-67
2023/09/08 03:18:32;;;;;;;12.52;9.02;;;17.50;99.90;;;;;;5034559;28;20095;-67
2023/09/08 03:21:01;;;;;;;11.77;9.10;;;17.60;99.90;;;;;;5016650;28;20046;-69
2023/09/08 03:23:29;;;;;;;11.50;8.40;;;17.50;99.90;;;;;;5016201;28;20052;-68
2023/09/08 03:25:56;;;;;;;10.55;8.63;;;17.50;99.90;;;;;;5016439;28;20076;-68
2023/09/08 03:28:23;;;;;;;11.73;8.98;;;17.50;99.90;;;;;;5034305;28;20041;-68
2023/09/08 03:30:50;;;;;;;16.17;9.18;;;17.50;99.90;;;;;;5034308;28;20053;-69
2023/09/08 03:33:17;;;;;;;10.15;8.80;;;17.50;99.90;;;;;;5034265;28;20061;-68
2023/09/08 03:35:45;;;;;;;11.70;8.73;;;17.40;99.90;;;;;;5033819;28;20061;-68
2023/09/08 03:38:12;;;;;;;12.60;9.55;;;17.40;99.90;;;;;;5016428;28;20540;-66
2023/09/08 03:40:40;;;;;;;12.50;8.95;;;17.50;99.90;;;;;;5016271;28;20099;-67
2023/09/08 03:43:07;;;;;;;12.30;9.00;;;17.50;99.90;;;;;;5015835;28;20045;-67
2023/09/08 03:45:34;;;;;;;14.95;8.05;;;17.50;99.90;;;;;;5026621;28;20103;-68
2023/09/08 03:48:01;;;;;;;9.95;8.27;;;17.50;99.90;;;;;;5032459;28;20401;-68
2023/09/08 03:50:28;;;;;;;14.35;9.20;;;17.60;99.90;;;;;;5013691;28;20410;-68
2023/09/08 03:52:55;;;;;;;13.13;9.18;;;17.80;99.90;;;;;;5012537;28;20115;-68
2023/09/08 03:55:21;;;;;;;13.02;9.35;;;17.80;99.90;;;;;;5012237;28;20061;-68
2023/09/08 03:57:50;;;;;;;11.30;8.65;;;17.80;99.90;;;;;;5030844;28;20049;-69
2023/09/08 04:00:21;;;;;;;10.55;8.85;;;18.00;99.90;;;;;;5028826;28;20045;-68
2023/09/08 04:02:48;;;;;;;12.40;9.15;;;18.30;99.90;;;;;;5030476;28;20143;-68
2023/09/08 04:05:15;;;;;;;12.02;8.38;;;18.30;99.90;;;;;;5012192;28;20045;-68
2023/09/08 04:07:42;;;;;;;11.02;8.45;;;18.40;99.90;;;;;;5012285;28;20111;-67
2023/09/08 04:10:10;;;;;;;12.50;8.02;;;18.60;99.90;;;;;;5032729;28;20080;-68
2023/09/08 04:12:37;;;;;;;12.07;8.38;;;18.60;99.90;;;;;;5013367;28;20041;-68
2023/09/08 04:15:06;;;;;;;12.68;7.95;;;18.70;99.90;;;;;;5014609;28;20050;-67
2023/09/08 04:17:33;;;;;;;12.73;8.82;;;18.60;99.90;;;;;;5012763;28;20049;-68
2023/09/08 04:20:00;;;;;;;12.02;9.10;;;18.70;99.90;;;;;;5031252;28;20048;-68
2023/09/08 04:22:27;;;;;;;10.73;8.65;;;18.70;99.90;;;;;;5012994;28;20045;-67
2023/09/08 04:24:55;;;;;;;10.52;8.93;;;18.60;99.90;;;;;;5031985;28;20058;-68
2023/09/08 04:27:22;;;;;;;14.57;9.27;;;18.60;99.90;;;;;;5013308;28;20057;-67
2023/09/08 04:29:49;;;;;;;9.25;8.32;;;18.50;99.90;;;;;;5014664;28;20099;-68
2023/09/08 04:32:17;;;;;;;9.27;7.20;;;18.30;99.90;;;;;;5011676;28;20053;-67
2023/09/08 04:34:44;;;;;;;9.18;7.65;;;18.30;99.90;;;;;;5032295;28;20056;-66
2023/09/08 04:37:11;;;;;;;14.07;9.07;;;18.30;99.90;;;;;;5012042;28;20072;-72
2023/09/08 04:39:38;;;;;;;12.38;9.13;;;18.10;99.90;;;;;;5030321;28;20095;-67
2023/09/08 04:42:05;;;;;;;13.80;9.50;;;18.10;99.90;;;;;;5030767;28;20045;-68
2023/09/08 04:44:32;;;;;;;11.40;9.05;;;17.90;99.90;;;;;;5031454;28;20049;-67
2023/09/08 04:46:59;;;;;;;11.73;8.00;;;17.80;99.90;;;;;;5030499;28;20049;-66
2023/09/08 04:49:28;;;;;;;10.57;9.35;;;17.70;99.90;;;;;;5028110;28;20049;-71
2023/09/08 04:51:55;;;;;;;10.18;8.70;;;17.80;99.90;;;;;;5010103;28;20099;-68
2023/09/08 04:54:24;;;;;;;11.68;9.65;;;17.90;99.90;;;;;;5027729;28;20105;-68
2023/09/08 04:56:51;;;;;;;11.52;8.70;;;17.80;99.90;;;;;;5012012;28;20057;-74
2023/09/08 04:59:18;;;;;;;12.38;9.88;;;17.70;99.90;;;;;;5012671;28;20049;-67
2023/09/08 05:01:45;;;;;;;10.55;9.40;;;17.60;99.90;;;;;;5030836;28;20136;-67
2023/09/08 05:04:12;;;;;;;11.50;8.57;;;17.60;99.90;;;;;;5030286;28;20417;-67
2023/09/08 05:06:41;;;;;;;10.38;8.75;;;17.60;99.90;;;;;;5031360;28;20057;-66
2023/09/08 05:09:08;;;;;;;12.80;9.65;;;17.60;99.90;;;;;;5010543;28;20107;-66
2023/09/08 05:11:34;;;;;;;15.18;9.73;;;17.60;99.90;;;;;;5014198;28;20084;-67
2023/09/08 05:14:01;;;;;;;13.00;9.00;;;17.70;99.90;;;;;;5009983;28;20511;-67
2023/09/08 05:16:39;;;;;;;13.00;9.13;;;17.60;99.90;;;;;;5013473;28;20042;-65
2023/09/08 05:19:06;;;;;;;10.68;8.70;;;17.90;99.90;;;;;;5011537;28;20454;-66
2023/09/08 05:21:33;;;;;;;15.07;8.88;;;17.90;99.90;;;;;;5013763;28;20052;-67
2023/09/08 05:24:01;;;;;;;14.38;8.93;;;18.00;99.90;;;;;;5030011;28;20057;-66
2023/09/08 05:26:28;;;;;;;12.13;8.32;;;17.90;99.90;;;;;;5031626;28;20045;-66
2023/09/08 05:28:55;;;;;;;13.63;9.32;;;17.90;99.90;;;;;;5011138;28;20057;-66
2023/09/08 05:31:22;;;;;;;11.38;8.70;;;17.90;99.90;;;;;;5027922;28;20044;-66
2023/09/08 05:33:49;;;;;;;9.82;8.32;;;17.90;99.90;;;;;;5013066;28;20053;-66
2023/09/08 05:36:16;;;;;;;12.85;9.02;;;17.80;99.90;;;;;;5028671;28;20116;-66
2023/09/08 05:38:43;;;;;;;13.75;9.43;;;17.80;99.90;;;;;;5013824;28;20436;-67
2023/09/08 05:41:11;;;;;;;12.77;9.13;;;17.80;99.90;;;;;;5011806;28;20038;-67
2023/09/08 05:43:38;;;;;;;16.33;9.45;;;17.90;99.90;;;;;;5042264;28;20096;-66
2023/09/08 05:46:05;;;;;;;11.75;8.90;;;18.00;99.90;;;;;;5011676;28;20045;-66
2023/09/08 05:48:32;;;;;;;10.18;8.43;;;17.90;99.90;;;;;;5011785;28;20464;-66
2023/09/08 05:50:59;;;;;;;14.00;7.95;;;18.00;99.90;;;;;;5028290;28;20045;-66
2023/09/08 05:53:26;;;;;;;10.15;8.23;;;18.00;99.90;;;;;;5031128;28;20073;-66
2023/09/08 05:55:53;;;;;;;10.70;8.32;;;18.10;99.90;;;;;;5011746;28;20061;-65
2023/09/08 05:58:24;;;;;;;12.98;8.68;;;18.10;99.90;;;;;;5027346;28;20045;-67
2023/09/08 06:00:50;;;;;;;;;;;18.20;99.90;;;;;;5007801;28;20597;-76
2023/09/08 06:03:17;;;;;;;8.68;7.13;;;18.20;99.90;;;;;;5008704;28;19925;-67
2023/09/08 06:05:44;;;;;;;9.88;8.68;;;18.30;99.90;;;;;;5012230;28;20563;-65
2023/09/08 06:08:11;;;;;;;10.55;8.57;;;18.40;99.90;;;;;;5031209;28;20063;-67
2023/09/08 06:10:38;;;;;;;11.57;8.05;;;18.40;99.90;;;;;;5009076;28;20384;-67
2023/09/08 06:13:06;;;;;;;13.45;8.23;;;18.50;99.90;;;;;;5007446;28;20053;-67
2023/09/08 06:15:34;;;;;;;11.43;8.15;;;18.60;99.90;;;;;;5028826;28;20494;-67
2023/09/08 06:18:01;;;;;;;10.20;8.23;;;18.70;99.90;;;;;;5027943;28;20104;-68
2023/09/08 06:20:28;;;;;;;12.00;8.45;;;19.10;99.90;;;;;;5010901;28;20103;-67
2023/09/08 06:22:55;;;;;;;9.60;7.20;;;19.80;99.90;;;;;;5030504;28;20489;-68
2023/09/08 06:25:22;;;;;;;9.27;7.43;;;20.70;99.90;;;;;;5013046;28;20073;-68
2023/09/08 06:27:48;;;;;;;10.20;8.05;;;21.60;99.90;;;;;;5031646;28;20056;-68
2023/09/08 06:30:16;;;;;;;10.02;7.38;;;22.50;99.90;;;;;;5013304;28;20099;-68
2023/09/08 06:32:44;;;;;;;13.77;7.72;;;23.40;99.90;;;;;;5030495;28;20422;-68
2023/09/08 06:35:12;;;;;;;10.25;7.22;;;24.10;99.90;;;;;;5012752;28;20423;-68
2023/09/08 06:37:39;;;;;;;10.95;7.30;;;24.60;99.90;;;;;;5010557;28;20049;-67
2023/09/08 06:40:07;;;;;;;9.00;6.50;;;24.80;99.90;;;;;;5012703;28;20448;-67
2023/09/08 06:42:34;;;;;;;11.48;6.88;;;24.60;99.90;;;;;;5030775;28;20060;-68
2023/09/08 06:45:02;;;;;;;8.98;6.38;;;24.50;99.90;;;;;;5031111;28;20054;-68
2023/09/08 06:47:29;;;;;;;7.30;6.35;;;24.90;99.90;;;;;;5013144;28;20049;-68
2023/09/08 06:49:57;;;;;;;8.32;6.47;;;25.70;99.90;;;;;;5031254;28;20137;-68
2023/09/08 06:52:24;;;;;;;10.32;6.93;;;26.10;99.90;;;;;;5031150;28;20092;-67
2023/09/08 06:54:51;;;;;;;9.85;6.22;;;26.50;99.90;;;;;;5030782;28;20475;-66
2023/09/08 06:57:19;;;;;;;9.20;5.60;;;27.20;99.30;;;;;;5031585;28;20053;-68
2023/09/08 06:59:46;;;;;;;8.60;5.80;;;27.50;98.20;;;;;;5012648;28;20084;-68
2023/09/08 07:02:13;;;;;;;11.68;5.65;;;28.10;97.60;;;;;;5015922;28;20092;-68
2023/09/08 07:04:40;;;;;;;10.15;6.18;;;28.50;96.90;;;;;;5016739;28;20064;-67
2023/09/08 07:07:10;;;;;;;13.60;5.32;;;28.90;96.20;;;;;;5034486;28;20045;-68
2023/09/08 07:09:37;;;;;;;8.18;5.72;;;29.20;95.10;;;;;;5034740;28;20042;-68
2023/09/08 07:12:06;;;;;;;8.35;5.60;;;29.70;94.80;;;;;;5034674;28;20492;-67
2023/09/08 07:14:33;;;;;;;10.43;6.32;;;30.10;94.00;;;;;;5033956;28;20116;-68
2023/09/08 07:17:00;;;;;;;7.80;5.53;;;30.30;93.40;;;;;;5016846;28;20049;-68
2023/09/08 07:19:27;;;;;;;8.20;5.68;;;30.70;92.80;;;;;;5034519;28;20045;-69
2023/09/08 07:21:54;;;;;;;7.00;4.90;;;31.10;92.30;;;;;;5015863;28;20391;-69
2023/09/08 07:24:22;;;;;;;6.47;4.93;;;31.30;91.70;;;;;;5016430;28;20065;-69
2023/09/08 07:26:50;;;;;;;8.00;5.15;;;31.60;91.20;;;;;;5034399;28;20064;-68
2023/09/08 07:29:17;;;;;;;7.53;4.85;;;31.70;90.80;;;;;;5033440;28;20041;-68
2023/09/08 07:31:44;;;;;;;5.90;4.80;;;31.80;90.40;;;;;;5034370;28;20041;-68
2023/09/08 07:34:11;;;;;;;8.60;5.45;;;32.00;90.20;;;;;;5016394;28;20061;-68
2023/09/08 07:36:38;;;;;;;7.22;4.85;;;32.10;89.00;;;;;;5033546;28;20046;-69
2023/09/08 07:39:05;;;;;;;5.78;4.80;;;32.20;88.90;;;;;;5034123;28;20420;-69
2023/09/08 07:41:34;;;;;;;6.28;4.75;;;32.10;88.30;;;;;;5013769;28;20045;-69
2023/09/08 07:44:01;;;;;;;6.82;4.78;;;32.20;87.50;;;;;;5033545;28;20468;-69
2023/09/08 07:46:28;;;;;;;9.25;4.90;;;32.10;87.70;;;;;;5019206;28;20053;-67
2023/09/08 07:48:55;;;;;;;7.82;4.63;;;31.90;87.60;;;;;;5032609;28;20049;-68
2023/09/08 07:51:22;;;;;;;8.10;4.95;;;32.00;87.40;;;;;;5015080;28;20049;-69
2023/09/08 07:53:49;;;;;;;6.75;4.70;;;32.10;87.00;;;;;;5033485;28;20050;-70
2023/09/08 07:56:16;;;;;;;6.45;4.82;;;32.10;86.80;;;;;;5014455;28;20049;-69
2023/09/08 07:58:44;;;;;;;6.40;5.00;;;32.30;86.20;;;;;;5033084;28;20041;-69
2023/09/08 08:01:11;;;;;;;5.45;4.63;;;32.40;85.80;;;;;;5032793;28;20041;-69
2023/09/08 08:03:38;;;;;;;9.15;5.15;;;32.40;85.80;;;;;;5032656;28;20442;-69
2023/09/08 08:06:05;;;;;;;5.82;4.55;;;32.60;85.80;;;;;;5032927;28;20045;-69
2023/09/08 08:08:32;;;;;;;5.35;4.38;;;33.00;85.20;;;;;;5015333;28;20456;-70
2023/09/08 08:11:00;;;;;;;8.48;4.25;;;33.40;84.70;;;;;;5015286;28;20045;-69
2023/09/08 08:13:27;;;;;;;5.93;4.10;;;33.70;84.60;;;;;;5014335;28;20045;-68
2023/09/08 08:15:55;;;;;;;6.22;4.28;;;33.90;84.10;;;;;;5015074;28;20059;-68
2023/09/08 08:18:22;;;;;;;6.28;4.05;;;34.30;83.40;;;;;;5032487;28;20132;-69
2023/09/08 08:20:49;;;;;;;10.13;4.20;;;34.80;82.70;;;;;;5012494;28;20050;-69
2023/09/08 08:23:16;;;;;;;9.20;4.13;;;35.10;82.90;;;;;;5031055;28;20045;-68
2023/09/08 08:25:43;;;;;;;7.88;4.03;;;35.20;81.70;;;;;;5014738;28;20111;-69
2023/09/08 08:28:10;;;;;;;7.78;4.00;;;35.50;81.20;;;;;;5033287;28;20397;-68
2023/09/08 08:30:36;;;;;;;9.20;3.78;;;35.40;80.70;;;;;;5032671;28;20505;-68
2023/09/08 08:33:05;;;;;;;5.00;4.00;;;35.60;80.30;;;;;;5032794;28;20045;-68
2023/09/08 08:35:32;;;;;;;5.78;3.97;;;35.70;79.00;;;;;;5032499;28;20547;-69
2023/09/08 08:38:00;;;;;;;6.25;4.30;;;35.60;79.70;;;;;;5033153;28;20046;-69
2023/09/08 08:40:28;;;;;;;6.40;3.78;;;35.60;79.70;;;;;;5032836;28;20050;-69
2023/09/08 08:42:56;;;;;;;6.28;3.75;;;35.80;79.20;;;;;;5032196;28;20508;-68
2023/09/08 08:45:25;;;;;;;6.77;3.57;;;36.20;78.70;;;;;;5014123;28;20049;-70
2023/09/08 08:47:53;;;;;;;9.18;4.13;;;35.60;78.70;;;;;;5032592;28;20179;-69
2023/09/08 08:50:21;;;;;;;4.43;3.55;;;35.30;78.30;;;;;;5012616;28;20054;-68
2023/09/08 08:52:48;;;;;;;6.57;3.78;;;36.00;78.30;;;;;;5032296;28;20057;-68
2023/09/08 08:55:15;;;;;;;6.90;3.75;;;36.30;77.50;;;;;;5032873;28;20045;-69
2023/09/08 08:57:43;;;;;;;6.05;3.70;;;36.20;77.20;;;;;;5032387;28;20416;-70
2023/09/08 09:00:12;;;;;;;7.60;3.88;;;36.20;76.70;;;;;;5031669;28;20390;-70
2023/09/08 09:02:41;;;;;;;5.07;3.75;;;36.60;76.60;;;;;;5031945;28;20108;-70
2023/09/08 09:05:11;;;;;;;6.25;3.85;;;36.90;76.10;;;;;;5030839;28;20049;-70
2023/09/08 09:07:40;;;;;;;7.05;3.72;;;36.90;75.90;;;;;;5031750;28;20064;-68
2023/09/08 09:10:08;;;;;;;6.22;3.92;;;36.70;75.50;;;;;;5014666;28;20050;-68
2023/09/08 09:12:38;;;;;;;4.50;3.60;;;36.50;75.60;;;;;;5014610;28;20096;-68
2023/09/08 09:15:05;;;;;;;5.75;3.33;;;36.60;75.60;;;;;;5032026;28;20354;-68
2023/09/08 09:17:34;;;;;;;4.57;3.42;;;36.80;75.40;;;;;;5012318;28;20492;-69
2023/09/08 09:20:15;;;;;;;4.35;3.35;;;36.80;75.10;;;;;;5032367;28;20046;-69
2023/09/08 09:22:43;;;;;;;26.63;4.80;;;37.10;74.40;;;;;;5012870;28;20131;-69
2023/09/08 09:25:11;;;;;;;10.32;3.90;;;37.10;74.90;;;;;;5031780;28;20478;-69
2023/09/08 09:27:40;;;;;;;7.15;3.83;;;37.40;74.70;;;;;;5031360;28;20068;-68
2023/09/08 09:30:09;;;;;;;3.90;3.40;;;37.60;74.60;;;;;;5014288;28;20053;-69
2023/09/08 09:32:36;;;;;;;11.55;4.63;;;37.50;74.20;;;;;;5008478;28;20061;-67
2023/09/08 09:35:03;;;;;;;6.82;4.07;;;37.50;74.20;;;;;;5027425;28;20053;-69
2023/09/08 09:37:31;;;;;;;6.95;3.97;;;37.80;74.20;;;;;;5011024;28;20052;-70
2023/09/08 09:40:01;;;;;;;8.32;3.45;;;37.80;73.80;;;;;;5031004;28;20049;-66
2023/09/08 09:42:29;;;;;;;5.07;3.72;;;38.10;73.20;;;;;;5028894;28;20046;-67
2023/09/08 09:44:56;;;;;;;6.80;3.27;;;38.00;72.60;;;;;;5031350;28;20065;-67
2023/09/08 09:47:23;;;;;;;5.32;3.15;;;37.90;72.50;;;;;;5011450;28;20312;-68
2023/09/08 09:49:50;;;;;;;6.88;3.67;;;37.90;72.20;;;;;;5012953;28;20056;-67
2023/09/08 09:52:23;;;;;;;5.13;3.22;;;38.00;72.40;;;;;;5011262;28;20041;-68
2023/09/08 09:54:51;;;;;;;6.32;3.72;;;38.00;71.20;;;;;;5030319;28;20099;-67
2023/09/08 09:57:21;;;;;;;5.75;3.28;;;37.80;71.70;;;;;;5029078;28;20425;-67
2023/09/08 09:59:50;;;;;;;7.60;3.30;;;38.20;71.70;;;;;;5012755;28;20060;-66
2023/09/08 10:02:20;;;;;;;6.95;3.47;;;38.20;70.70;;;;;;5029889;28;20053;-66
2023/09/08 10:04:49;;;;;;;5.43;3.20;;;38.30;70.80;;;;;;5011829;28;20441;-66
2023/09/08 10:07:17;;;;;;;6.35;3.53;;;37.90;71.30;;;;;;5030463;28;20426;-67
2023/09/08 10:09:44;;;;;;;7.80;3.58;;;38.10;70.90;;;;;;5028637;28;20050;-66
2023/09/08 10:12:15;;;;;;;4.15;3.33;;;38.20;70.50;;;;;;5030630;28;20053;-67
2023/09/08 10:14:44;;;;;;;5.47;3.53;;;38.30;70.50;;;;;;5012806;28;20091;-67
2023/09/08 10:17:20;;;;;;;6.25;3.40;;;38.20;70.40;;;;;;5030345;28;20050;-68
2023/09/08 10:19:51;;;;;;;5.82;3.80;;;38.30;70.80;;;;;;5011526;28;20049;-69
2023/09/08 10:22:22;;;;;;;9.45;3.63;;;38.10;70.70;;;;;;5030130;28;20124;-69
2023/09/08 10:24:51;;;;;;;4.00;3.10;;;38.40;70.70;;;;;;5027547;28;20064;-69
2023/09/08 10:27:21;;;;;;;7.55;3.40;;;38.50;70.00;;;;;;5030696;28;20444;-70
2023/09/08 10:29:50;;;;;;;4.63;3.35;;;38.80;70.00;;;;;;5029545;28;20457;-68
2023/09/08 10:32:19;;;;;;;6.40;3.17;;;38.80;69.40;;;;;;5029562;28;20045;-69
2023/09/08 10:34:48;;;;;;;4.57;3.15;;;38.70;69.40;;;;;;5011698;28;20053;-68
2023/09/08 10:37:24;;;;;;;7.95;3.10;;;38.80;69.40;;;;;;5014087;28;20494;-68
2023/09/08 10:39:51;;;;;;;7.88;3.40;;;38.70;67.30;;;;;;5032997;28;20061;-68
2023/09/08 10:42:28;;;;;;;8.63;3.80;;;38.40;67.90;;;;;;5013134;28;20049;-69
2023/09/08 10:45:14;;;;;;;6.55;3.53;;;38.10;68.20;;;;;;5013628;28;20489;-69
2023/09/08 10:47:57;;;;;;;5.35;2.88;;;38.40;68.30;;;;;;5033453;28;20042;-68
2023/09/08 10:50:30;;;;;;;4.07;3.00;;;38.30;68.20;;;;;;5016261;28;20405;-69
2023/09/08 10:53:14;;;;;;;5.13;3.38;;;38.40;68.70;;;;;;5013958;28;20141;-69
2023/09/08 10:55:43;;;;;;;5.05;2.80;;;38.70;68.30;;;;;;5016955;28;20049;-69
2023/09/08 10:58:11;;;;;;;4.45;2.70;;;39.00;68.50;;;;;;5016384;28;20084;-69
2023/09/08 11:00:46;;;;;;;5.97;2.72;;;39.00;68.10;;;;;;5015931;28;20064;-69
2023/09/08 11:03:14;;;;;;;5.93;2.80;;;39.40;68.40;;;;;;5034399;28;20088;-69
2023/09/08 11:05:44;;;;;;;7.45;3.30;;;39.50;68.40;;;;;;5016793;28;20095;-69
2023/09/08 11:08:11;;;;;;;3.88;3.00;;;39.50;68.60;;;;;;5016978;28;20111;-69
2023/09/08 11:10:40;;;;;;;3.50;2.88;;;39.30;68.50;;;;;;5034670;28;20429;-70
2023/09/08 11:13:08;;;;;;;4.68;2.80;;;39.90;68.60;;;;;;5016182;28;20389;-70
2023/09/08 11:15:34;;;;;;;5.38;3.28;;;39.90;68.30;;;;;;5016662;28;20072;-70
2023/09/08 11:18:08;;;;;;;5.03;3.20;;;39.60;68.20;;;;;;5016572;28;20061;-70
2023/09/08 11:20:35;;;;;;;5.53;3.30;;;39.80;68.00;;;;;;5016000;28;20099;-70
2023/09/08 11:23:04;;;;;;;6.93;3.15;;;40.00;68.10;;;;;;5034091;28;20088;-70
2023/09/08 11:25:33;;;;;;;3.70;3.03;;;40.10;68.00;;;;;;5034509;28;20053;-69
2023/09/08 11:28:00;;;;;;;5.57;3.33;;;40.30;67.50;;;;;;5032901;28;20049;-69
2023/09/08 11:30:27;;;;;;;4.30;2.95;;;40.20;67.10;;;;;;5034308;28;20405;-69
2023/09/08 11:32:54;;;;;;;6.22;3.17;;;40.40;67.20;;;;;;5034328;28;20053;-69
2023/09/08 11:35:27;;;;;;;6.40;3.10;;;40.50;66.80;;;;;;5033667;28;20045;-69
2023/09/08 11:37:55;;;;;;;5.13;3.03;;;40.40;66.20;;;;;;5015956;28;20058;-70
2023/09/08 11:40:22;;;;;;;4.47;3.03;;;40.50;65.90;;;;;;5016427;28;20512;-70
2023/09/08 11:42:49;;;;;;;6.30;3.08;;;40.40;65.90;;;;;;5015285;28;20046;-70
2023/09/08 11:45:17;;;;;;;4.35;2.60;;;40.20;65.80;;;;;;5031925;28;20103;-69
2023/09/08 11:47:45;;;;;;;3.20;2.75;;;40.10;65.90;;;;;;5015420;28;20060;-69
2023/09/08 11:50:15;;;;;;;6.75;3.30;;;40.30;66.10;;;;;;5015456;28;20050;-69
2023/09/08 11:52:45;;;;;;;5.43;3.05;;;40.10;65.90;;;;;;5015228;28;20117;-69
2023/09/08 11:55:13;;;;;;;7.05;3.30;;;40.10;65.90;;;;;;5014504;28;20441;-69
2023/09/08 11:57:41;;;;;;;5.53;2.78;;;40.10;65.90;;;;;;5033552;28;20060;-70
2023/09/08 12:00:14;;;;;;;4.43;2.92;;;40.00;66.30;;;;;;5015598;28;20045;-70
2023/09/08 12:02:41;;;;;;;5.07;3.08;;;40.10;66.30;;;;;;5014881;28;20081;-70
2023/09/08 12:05:13;;;;;;;5.10;2.65;;;40.10;66.50;;;;;;5033812;28;20052;-69
2023/09/08 12:07:40;;;;;;;4.10;2.70;;;40.60;65.80;;;;;;5033203;28;20053;-70
2023/09/08 12:10:11;;;;;;;5.20;2.90;;;40.00;65.90;;;;;;5014869;28;20535;-70
2023/09/08 12:12:44;;;;;;;4.90;2.83;;;40.30;65.80;;;;;;5033105;28;20100;-70
2023/09/08 12:15:11;;;;;;;4.55;2.78;;;40.70;65.20;;;;;;5014800;28;20144;-70
2023/09/08 12:17:48;;;;;;;3.33;2.83;;;41.00;64.80;;;;;;5012315;28;20099;-69
2023/09/08 12:20:16;;;;;;;5.07;2.53;;;41.10;64.10;;;;;;5031655;28;20128;-69
2023/09/08 12:22:49;;;;;;;4.78;2.58;;;41.30;64.80;;;;;;5014013;28;20060;-70
2023/09/08 12:25:18;;;;;;;6.47;2.90;;;41.30;64.00;;;;;;5011923;28;20050;-70
2023/09/08 12:27:47;;;;;;;5.38;3.20;;;41.20;63.50;;;;;;5032432;28;20068;-69
2023/09/08 12:30:17;;;;;;;;;;;40.80;63.70;;;;;;5015449;28;20153;-69
2023/09/08 12:32:47;;;;;;;4.40;3.00;;;40.90;63.80;;;;;;5031695;28;20014;-69
2023/09/08 12:35:14;;;;;;;6.47;2.90;;;40.70;64.10;;;;;;5015073;28;20505;-69
2023/09/08 12:37:41;;;;;;;5.05;3.15;;;40.60;63.70;;;;;;5032389;28;20049;-69
2023/09/08 12:40:09;;;;;;;4.20;2.80;;;40.50;63.50;;;;;;5031041;28;20049;-69
2023/09/08 12:42:38;;;;;;;9.45;3.08;;;40.40;63.40;;;;;;5014946;28;20124;-68
2023/09/08 12:45:06;;;;;;;5.00;2.97;;;40.40;63.20;;;;;;5032153;28;20111;-69
2023/09/08 12:47:35;;;;;;;3.60;2.92;;;40.30;63.40;;;;;;5032506;28;20115;-69